Dades meteomassalio
Diari Summary for Febrer 26, 2018 Units:  Both    English   Metric
« Previous Day
Next Day »
Diari Semanal Mensual Anual Personalitzat
  Maxima: Minima: Mijana:
Temperatura: TemperatureC °F /  -17.8 °C -3.3 °F /  -19.6 °C 5.6 °F /  -14.7 °C
Rosada: DewpointC °F /  -17.8 °C -10.5 °F /  -23.6 °C -4.9 °F /  -20.5 °C
Humitat: Humidity % 30 % 49 %
Velocitat del vent: WindSpeedKMH mph /  0 km/h - 12.6 mph /  20.3 km/h
Racha vent: WindSpeedGustKMH mph /  0 km/h - -
Vent:- - WNW
Pressio: PressurehPa in /  0 hPa 1006.3 in /  34073.3 hPa -
Pluja: 0.0 in /  0 mm    
Historical Graphs
 
 
Tabular Data for Febrer 26, 2018
Time Temperature Dew Point Pressure Wind Wind Speed Wind Gust Humidity Rainfall Rate (Hourly) solar Conditions
TemperatureC °F /  -17.8 °C DewpointC °F /  -17.8 °C PressurehPa in /  0 hPa Calm     Humidity % HourlyPrecipMM in /  0 mm SolarRadiationWatts/m^2 W/m2 Conditions
00:04 7.2 °F /  -13.8 °C -3.3 °F /  -19.6 °C 1012.4 in /  34279.9 hPa WNW 24.1 mph /  38.8 km/h 24.1 mph /  38.8 km/h 47 % 0.0 in /  0 mm 0.0 W/m2 CLR
00:09 7.2 °F /  -13.8 °C -3.3 °F /  -19.6 °C 1012.4 in /  34279.9 hPa NW 22.2 mph /  35.7 km/h 22.2 mph /  35.7 km/h 47 % 0.0 in /  0 mm 0.0 W/m2 CLR
00:14 7.2 °F /  -13.8 °C -3.3 °F /  -19.6 °C 1012.4 in /  34279.9 hPa WNW 27.8 mph /  44.7 km/h 27.8 mph /  44.7 km/h 47 % 0.0 in /  0 mm 0.0 W/m2 CLR
00:19 7.2 °F /  -13.8 °C -3.1 °F /  -19.5 °C 1012.8 in /  34293.4 hPa WNW 18.5 mph /  29.8 km/h 18.5 mph /  29.8 km/h 48 % 0.0 in /  0 mm 0.0 W/m2 CLR
00:24 6.7 °F /  -14.1 °C -3.6 °F /  -19.8 °C 1012.8 in /  34293.4 hPa NW 16.7 mph /  26.9 km/h 16.7 mph /  26.9 km/h 48 % 0.0 in /  0 mm 0.0 W/m2 CLR
00:29 6.7 °F /  -14.1 °C -3.6 °F /  -19.8 °C 1012.8 in /  34293.4 hPa NW 14.5 mph /  23.3 km/h 14.5 mph /  23.3 km/h 48 % 0.0 in /  0 mm 0.0 W/m2 CLR
00:34 6.1 °F /  -14.4 °C -4.1 °F /  -20.1 °C 1012.8 in /  34293.4 hPa WNW 18.5 mph /  29.8 km/h 18.5 mph /  29.8 km/h 48 % 0.0 in /  0 mm 0.0 W/m2 CLR
00:39 5.6 °F /  -14.7 °C -4.3 °F /  -20.2 °C 1012.8 in /  34293.4 hPa NW 20.4 mph /  32.8 km/h 20.4 mph /  32.8 km/h 49 % 0.0 in /  0 mm 0.0 W/m2 CLR
00:44 5.0 °F /  -15 °C -4.8 °F /  -20.4 °C 1012.8 in /  34293.4 hPa WNW 16.7 mph /  26.9 km/h 16.7 mph /  26.9 km/h 49 % 0.0 in /  0 mm 0.0 W/m2 CLR
00:49 5.0 °F /  -15 °C -4.6 °F /  -20.3 °C 1012.8 in /  34293.4 hPa WNW 16.7 mph /  26.9 km/h 16.7 mph /  26.9 km/h 50 % 0.0 in /  0 mm 0.0 W/m2 CLR
00:54 5.0 °F /  -15 °C -4.6 °F /  -20.3 °C 1012.8 in /  34293.4 hPa NW 16.1 mph /  25.9 km/h 16.1 mph /  25.9 km/h 50 % 0.0 in /  0 mm 0.0 W/m2 CLR
00:59 4.4 °F /  -15.3 °C -5.1 °F /  -20.6 °C 1012.8 in /  34293.4 hPa WNW 16.7 mph /  26.9 km/h 16.7 mph /  26.9 km/h 50 % 0.0 in /  0 mm 0.0 W/m2 CLR
01:04 3.9 °F /  -15.6 °C -5.3 °F /  -20.7 °C 1012.8 in /  34293.4 hPa NW 22.2 mph /  35.7 km/h 22.2 mph /  35.7 km/h 51 % 0.0 in /  0 mm 0.0 W/m2 CLR
01:09 4.4 °F /  -15.3 °C -4.8 °F /  -20.4 °C 1012.8 in /  34293.4 hPa WNW 22.2 mph /  35.7 km/h 22.2 mph /  35.7 km/h 51 % 0.0 in /  0 mm 0.0 W/m2 CLR
01:14 6.1 °F /  -14.4 °C -3.3 °F /  -19.6 °C 1012.8 in /  34293.4 hPa NW 16.1 mph /  25.9 km/h 16.1 mph /  25.9 km/h 51 % 0.0 in /  0 mm 0.0 W/m2 CLR
01:19 6.7 °F /  -14.1 °C -2.8 °F /  -19.3 °C 1012.8 in /  34293.4 hPa NW 18.5 mph /  29.8 km/h 18.5 mph /  29.8 km/h 51 % 0.0 in /  0 mm 0.0 W/m2 CLR
01:24 6.7 °F /  -14.1 °C -2.8 °F /  -19.3 °C 1012.8 in /  34293.4 hPa NW 20.9 mph /  33.6 km/h 20.9 mph /  33.6 km/h 51 % 0.0 in /  0 mm 0.0 W/m2 CLR
01:29 6.7 °F /  -14.1 °C -2.8 °F /  -19.3 °C 1012.8 in /  34293.4 hPa WNW 18.5 mph /  29.8 km/h 18.5 mph /  29.8 km/h 51 % 0.0 in /  0 mm 0.0 W/m2 CLR
01:34 6.7 °F /  -14.1 °C -2.5 °F /  -19.2 °C 1012.8 in /  34293.4 hPa West 18.5 mph /  29.8 km/h 18.5 mph /  29.8 km/h 52 % 0.0 in /  0 mm 0.0 W/m2 CLR
01:39 6.1 °F /  -14.4 °C -2.8 °F /  -19.3 °C 1012.8 in /  34293.4 hPa West 14.8 mph /  23.8 km/h 14.8 mph /  23.8 km/h 53 % 0.0 in /  0 mm 0.0 W/m2 CLR
01:44 5.6 °F /  -14.7 °C -3.3 °F /  -19.6 °C 1012.8 in /  34293.4 hPa WNW 18.5 mph /  29.8 km/h 18.5 mph /  29.8 km/h 53 % 0.0 in /  0 mm 0.0 W/m2 CLR
01:49 5.0 °F /  -15 °C -3.6 °F /  -19.8 °C 1012.4 in /  34279.9 hPa WNW 13.0 mph /  20.9 km/h 13.0 mph /  20.9 km/h 54 % 0.0 in /  0 mm 0.0 W/m2 CLR
01:54 4.4 °F /  -15.3 °C -3.8 °F /  -19.9 °C 1012.8 in /  34293.4 hPa West 7.4 mph /  11.9 km/h 7.4 mph /  11.9 km/h 55 % 0.0 in /  0 mm 0.0 W/m2 CLR
01:59 3.9 °F /  -15.6 °C -4.3 °F /  -20.2 °C 1012.8 in /  34293.4 hPa West 14.8 mph /  23.8 km/h 14.8 mph /  23.8 km/h 55 % 0.0 in /  0 mm 0.0 W/m2 CLR
02:04 5.0 °F /  -15 °C -3.3 °F /  -19.6 °C 1012.8 in /  34293.4 hPa West 11.3 mph /  18.2 km/h 11.3 mph /  18.2 km/h 55 % 0.0 in /  0 mm 0.0 W/m2 CLR
02:09 5.6 °F /  -14.7 °C -2.6 °F /  -19.2 °C 1012.8 in /  34293.4 hPa West 14.8 mph /  23.8 km/h 14.8 mph /  23.8 km/h 56 % 0.0 in /  0 mm 0.0 W/m2 CLR
02:14 5.6 °F /  -14.7 °C -2.6 °F /  -19.2 °C 1012.8 in /  34293.4 hPa WNW 9.3 mph /  15 km/h 9.3 mph /  15 km/h 56 % 0.0 in /  0 mm 0.0 W/m2 CLR
02:19 5.0 °F /  -15 °C -2.8 °F /  -19.3 °C 1012.8 in /  34293.4 hPa West 9.7 mph /  15.6 km/h 9.7 mph /  15.6 km/h 57 % 0.0 in /  0 mm 0.0 W/m2 CLR
02:24 5.0 °F /  -15 °C -2.8 °F /  -19.3 °C 1012.4 in /  34279.9 hPa West 16.7 mph /  26.9 km/h 16.7 mph /  26.9 km/h 57 % 0.0 in /  0 mm 0.0 W/m2 CLR
02:30 4.4 °F /  -15.3 °C -3.1 °F /  -19.5 °C 1012.4 in /  34279.9 hPa West 18.5 mph /  29.8 km/h 18.5 mph /  29.8 km/h 58 % 0.0 in /  0 mm 0.0 W/m2 CLR
02:36 4.4 °F /  -15.3 °C -3.1 °F /  -19.5 °C 1012.4 in /  34279.9 hPa West 22.5 mph /  36.2 km/h 22.5 mph /  36.2 km/h 58 % 0.0 in /  0 mm 0.0 W/m2 CLR
02:41 4.4 °F /  -15.3 °C -2.9 °F /  -19.4 °C 1012.4 in /  34279.9 hPa West 11.1 mph /  17.9 km/h 11.1 mph /  17.9 km/h 59 % 0.0 in /  0 mm 0.0 W/m2 CLR
02:46 5.0 °F /  -15 °C -2.3 °F /  -19.1 °C 1012.8 in /  34293.4 hPa West 18.5 mph /  29.8 km/h 18.5 mph /  29.8 km/h 59 % 0.0 in /  0 mm 0.0 W/m2 CLR
02:51 5.0 °F /  -15 °C -2.3 °F /  -19.1 °C 1012.4 in /  34279.9 hPa West 11.1 mph /  17.9 km/h 11.1 mph /  17.9 km/h 59 % 0.0 in /  0 mm 0.0 W/m2 CLR
02:56 4.4 °F /  -15.3 °C -2.9 °F /  -19.4 °C 1012.4 in /  34279.9 hPa West 9.3 mph /  15 km/h 9.3 mph /  15 km/h 59 % 0.0 in /  0 mm 0.0 W/m2 CLR
03:01 3.9 °F /  -15.6 °C -3.4 °F /  -19.7 °C 1012.4 in /  34279.9 hPa WNW 11.3 mph /  18.2 km/h 11.3 mph /  18.2 km/h 59 % 0.0 in /  0 mm 0.0 W/m2 CLR
03:06 3.3 °F /  -15.9 °C -4.2 °F /  -20.1 °C 1012.4 in /  34279.9 hPa WNW 14.8 mph /  23.8 km/h 14.8 mph /  23.8 km/h 58 % 0.0 in /  0 mm 0.0 W/m2 CLR
03:11 2.8 °F /  -16.2 °C -4.7 °F /  -20.4 °C 1012.4 in /  34279.9 hPa WNW 13.0 mph /  20.9 km/h 13.0 mph /  20.9 km/h 58 % 0.0 in /  0 mm 0.0 W/m2 CLR
03:16 2.2 °F /  -16.6 °C -5.2 °F /  -20.7 °C 1012.4 in /  34279.9 hPa NW 9.7 mph /  15.6 km/h 9.7 mph /  15.6 km/h 58 % 0.0 in /  0 mm 0.0 W/m2 CLR
03:22 2.2 °F /  -16.6 °C -5.2 °F /  -20.7 °C 1012.4 in /  34279.9 hPa NNW 12.9 mph /  20.8 km/h 12.9 mph /  20.8 km/h 58 % 0.0 in /  0 mm 0.0 W/m2 CLR
03:27 1.7 °F /  -16.8 °C -5.7 °F /  -20.9 °C 1012.4 in /  34279.9 hPa Calm     58 % 0.0 in /  0 mm 0.0 W/m2 CLR
03:32 1.1 °F /  -17.2 °C -6.2 °F /  -21.2 °C 1012.4 in /  34279.9 hPa NW 11.1 mph /  17.9 km/h 11.1 mph /  17.9 km/h 58 % 0.0 in /  0 mm 0.0 W/m2 CLR
03:37 1.1 °F /  -17.2 °C -6.2 °F /  -21.2 °C 1012.4 in /  34279.9 hPa WNW 9.3 mph /  15 km/h   58 % 0.0 in /  0 mm 0.0 W/m2 CLR
03:42 1.1 °F /  -17.2 °C -6.2 °F /  -21.2 °C 1012.4 in /  34279.9 hPa Calm     58 % 0.0 in /  0 mm 0.0 W/m2 CLR
03:47 0.6 °F /  -17.4 °C -6.6 °F /  -21.4 °C 1012.4 in /  34279.9 hPa Calm     59 % 0.0 in /  0 mm 0.0 W/m2 CLR
03:52 0.6 °F /  -17.4 °C -6.6 °F /  -21.4 °C 1012.4 in /  34279.9 hPa NW 13.0 mph /  20.9 km/h 13.0 mph /  20.9 km/h 59 % 0.0 in /  0 mm 0.0 W/m2 CLR
03:57 0.6 °F /  -17.4 °C -6.6 °F /  -21.4 °C 1012.4 in /  34279.9 hPa Calm     59 % 0.0 in /  0 mm 0.0 W/m2 CLR
04:02 0.6 °F /  -17.4 °C -6.6 °F /  -21.4 °C 1012.4 in /  34279.9 hPa Calm     59 % 0.0 in /  0 mm 0.0 W/m2 CLR
04:07 0.0 °F /  -17.8 °C -6.8 °F /  -21.6 °C 1012.4 in /  34279.9 hPa Calm     60 % 0.0 in /  0 mm 0.0 W/m2 CLR
04:12 0.6 °F /  -17.4 °C -6.3 °F /  -21.3 °C 1012.4 in /  34279.9 hPa Calm     60 % 0.0 in /  0 mm 0.0 W/m2 CLR
04:17 0.6 °F /  -17.4 °C -6.3 °F /  -21.3 °C 1012.4 in /  34279.9 hPa Calm     60 % 0.0 in /  0 mm 0.0 W/m2 CLR
04:22 1.1 °F /  -17.2 °C -5.6 °F /  -20.9 °C 1012.4 in /  34279.9 hPa Calm     61 % 0.0 in /  0 mm 0.0 W/m2 CLR
04:27 1.1 °F /  -17.2 °C -5.6 °F /  -20.9 °C 1012.4 in /  34279.9 hPa Calm     61 % 0.0 in /  0 mm 0.0 W/m2 CLR
04:32 1.1 °F /  -17.2 °C -5.6 °F /  -20.9 °C 1012.4 in /  34279.9 hPa Calm     61 % 0.0 in /  0 mm 0.0 W/m2 CLR
04:37 0.6 °F /  -17.4 °C -6.1 °F /  -21.2 °C 1012.4 in /  34279.9 hPa Calm     61 % 0.0 in /  0 mm 0.0 W/m2 CLR
04:42 0.6 °F /  -17.4 °C -6.1 °F /  -21.2 °C 1012.4 in /  34279.9 hPa Calm     61 % 0.0 in /  0 mm 0.0 W/m2 CLR
04:47 0.0 °F /  -17.8 °C -6.4 °F /  -21.3 °C 1012.4 in /  34279.9 hPa Calm     62 % 0.0 in /  0 mm 0.0 W/m2 CLR
04:52 0.0 °F /  -17.8 °C -6.4 °F /  -21.3 °C 1012.4 in /  34279.9 hPa Calm     62 % 0.0 in /  0 mm 0.0 W/m2 CLR
04:57 0.0 °F /  -17.8 °C -6.2 °F /  -21.2 °C 1012.4 in /  34279.9 hPa Calm     63 % 0.0 in /  0 mm 0.0 W/m2 CLR
05:02 0.0 °F /  -17.8 °C -6.2 °F /  -21.2 °C 1012.4 in /  34279.9 hPa Calm     63 % 0.0 in /  0 mm 0.0 W/m2 CLR
05:07 0.0 °F /  -17.8 °C -6.0 °F /  -21.1 °C 1012.4 in /  34279.9 hPa Calm     64 % 0.0 in /  0 mm 0.0 W/m2 CLR
05:12 0.0 °F /  -17.8 °C -6.0 °F /  -21.1 °C 1012.4 in /  34279.9 hPa Calm     64 % 0.0 in /  0 mm 0.0 W/m2 CLR
05:17 -0.6 °F /  -18.1 °C -6.3 °F /  -21.3 °C 1012.4 in /  34279.9 hPa NNE 5.6 mph /  9 km/h 5.6 mph /  9 km/h 65 % 0.0 in /  0 mm 0.0 W/m2 CLR
05:22 -0.6 °F /  -18.1 °C -6.3 °F /  -21.3 °C 1012.4 in /  34279.9 hPa Calm     65 % 0.0 in /  0 mm 0.0 W/m2 CLR
05:27 -0.6 °F /  -18.1 °C -6.1 °F /  -21.2 °C 1012.4 in /  34279.9 hPa Calm     66 % 0.0 in /  0 mm 0.0 W/m2 CLR
05:32 -0.6 °F /  -18.1 °C -6.1 °F /  -21.2 °C 1012.4 in /  34279.9 hPa Calm     66 % 0.0 in /  0 mm 0.0 W/m2 CLR
05:37 0.0 °F /  -17.8 °C -5.6 °F /  -20.9 °C 1012.4 in /  34279.9 hPa Calm     66 % 0.0 in /  0 mm 0.0 W/m2 CLR
05:42 0.0 °F /  -17.8 °C -5.4 °F /  -20.8 °C 1012.4 in /  34279.9 hPa Calm     67 % 0.0 in /  0 mm 0.0 W/m2 CLR
05:47 0.0 °F /  -17.8 °C -5.2 °F /  -20.7 °C 1012.4 in /  34279.9 hPa Calm     68 % 0.0 in /  0 mm 0.0 W/m2 CLR
05:52 -0.6 °F /  -18.1 °C -5.9 °F /  -21.1 °C 1012.4 in /  34279.9 hPa Calm     67 % 0.0 in /  0 mm 0.0 W/m2 CLR
05:57 -0.6 °F /  -18.1 °C -5.6 °F /  -20.9 °C 1012.4 in /  34279.9 hPa NW 9.7 mph /  15.6 km/h 9.7 mph /  15.6 km/h 69 % 0.0 in /  0 mm 0.0 W/m2 CLR
06:02 -0.6 °F /  -18.1 °C -5.6 °F /  -20.9 °C 1012.4 in /  34279.9 hPa NW 7.4 mph /  11.9 km/h 7.4 mph /  11.9 km/h 69 % 0.0 in /  0 mm 0.0 W/m2 CLR
06:07 -1.1 °F /  -18.4 °C -6.1 °F /  -21.2 °C 1012.4 in /  34279.9 hPa Calm     69 % 0.0 in /  0 mm 0.0 W/m2 CLR
06:12 -1.1 °F /  -18.4 °C -6.1 °F /  -21.2 °C 1012.4 in /  34279.9 hPa Calm     69 % 0.0 in /  0 mm 0.0 W/m2 CLR
06:17 -1.7 °F /  -18.7 °C -6.6 °F /  -21.4 °C 1012.4 in /  34279.9 hPa Calm     69 % 0.0 in /  0 mm 0.0 W/m2 CLR
06:22 -2.2 °F /  -19 °C -6.9 °F /  -21.6 °C 1012.4 in /  34279.9 hPa Calm     70 % 0.0 in /  0 mm 0.0 W/m2 CLR
06:27 -2.2 °F /  -19 °C -6.8 °F /  -21.6 °C 1012.4 in /  34279.9 hPa Calm     71 % 0.0 in /  0 mm 0.0 W/m2 CLR
06:32 -2.2 °F /  -19 °C -6.8 °F /  -21.6 °C 1012.4 in /  34279.9 hPa Calm     71 % 0.0 in /  0 mm 0.0 W/m2 CLR
06:37 -2.2 °F /  -19 °C -6.4 °F /  -21.3 °C 1012.1 in /  34269.7 hPa Calm     73 % 0.0 in /  0 mm 0.0 W/m2 CLR
06:42 -2.2 °F /  -19 °C -6.4 °F /  -21.3 °C 1012.1 in /  34269.7 hPa Calm     73 % 0.0 in /  0 mm 0.0 W/m2 CLR
06:47 -2.8 °F /  -19.3 °C -6.6 °F /  -21.4 °C 1012.1 in /  34269.7 hPa Calm     75 % 0.0 in /  0 mm 0.0 W/m2 CLR
06:52 -2.8 °F /  -19.3 °C -6.6 °F /  -21.4 °C 1012.1 in /  34269.7 hPa Calm     75 % 0.0 in /  0 mm 0.0 W/m2 CLR
06:57 -2.8 °F /  -19.3 °C -6.6 °F /  -21.4 °C 1012.1 in /  34269.7 hPa Calm     75 % 0.0 in /  0 mm 0.0 W/m2 CLR
07:02 -2.8 °F /  -19.3 °C -6.6 °F /  -21.4 °C 1012.1 in /  34269.7 hPa Calm     75 % 0.0 in /  0 mm 0.0 W/m2 CLR
07:07 -3.3 °F /  -19.6 °C -6.9 °F /  -21.6 °C 1012.1 in /  34269.7 hPa Calm     76 % 0.0 in /  0 mm 0.0 W/m2 CLR
07:12 -3.3 °F /  -19.6 °C -6.6 °F /  -21.4 °C 1012.1 in /  34269.7 hPa Calm     78 % 0.0 in /  0 mm 0.0 W/m2 CLR
07:17 -2.8 °F /  -19.3 °C -5.9 °F /  -21.1 °C 1012.1 in /  34269.7 hPa Calm     79 % 0.0 in /  0 mm 0.0 W/m2 CLR
07:22 -3.3 °F /  -19.6 °C -6.4 °F /  -21.3 °C 1012.1 in /  34269.7 hPa Calm     79 % 0.0 in /  0 mm 0.0 W/m2 CLR
07:27 -3.3 °F /  -19.6 °C -6.4 °F /  -21.3 °C 1012.1 in /  34269.7 hPa Calm     79 % 0.0 in /  0 mm 0.0 W/m2 CLR
07:32 -3.3 °F /  -19.6 °C -6.4 °F /  -21.3 °C 1012.1 in /  34269.7 hPa Calm     79 % 0.0 in /  0 mm 0.0 W/m2 OVC
07:37 -2.8 °F /  -19.3 °C -5.7 °F /  -20.9 °C 1012.1 in /  34269.7 hPa Calm     80 % 0.0 in /  0 mm 0.0 W/m2 OVC
07:42 -2.8 °F /  -19.3 °C -5.6 °F /  -20.9 °C 1012.1 in /  34269.7 hPa Calm     81 % 0.0 in /  0 mm 7.0 W/m2 OVC
07:47 -2.8 °F /  -19.3 °C -5.4 °F /  -20.8 °C 1012.1 in /  34269.7 hPa Calm     82 % 0.0 in /  0 mm 9.0 W/m2 BKN
07:52 -3.3 °F /  -19.6 °C -5.9 °F /  -21.1 °C 1012.1 in /  34269.7 hPa Calm     82 % 0.0 in /  0 mm 14.0 W/m2 BKN
07:57 -3.3 °F /  -19.6 °C -5.9 °F /  -21.1 °C 1012.4 in /  34279.9 hPa Calm     82 % 0.0 in /  0 mm 18.0 W/m2 BKN
08:02 -3.3 °F /  -19.6 °C -5.8 °F /  -21 °C 1012.4 in /  34279.9 hPa Calm     83 % 0.0 in /  0 mm 21.0 W/m2 BKN
08:07 -3.3 °F /  -19.6 °C -5.8 °F /  -21 °C 1012.4 in /  34279.9 hPa Calm     83 % 0.0 in /  0 mm 26.0 W/m2 BKN
08:12 -3.3 °F /  -19.6 °C -5.8 °F /  -21 °C 1012.4 in /  34279.9 hPa Calm     83 % 0.0 in /  0 mm 33.0 W/m2 BKN
08:17 -2.8 °F /  -19.3 °C -5.3 °F /  -20.7 °C 1012.1 in /  34269.7 hPa Calm     83 % 0.0 in /  0 mm 44.0 W/m2 BKN
08:22 -2.8 °F /  -19.3 °C -5.4 °F /  -20.8 °C 1012.4 in /  34279.9 hPa Calm     82 % 0.0 in /  0 mm 54.0 W/m2 SCT
08:27 -2.8 °F /  -19.3 °C -5.6 °F /  -20.9 °C 1012.4 in /  34279.9 hPa Calm     81 % 0.0 in /  0 mm 63.0 W/m2 SCT
08:32 -2.8 °F /  -19.3 °C -5.6 °F /  -20.9 °C 1012.4 in /  34279.9 hPa Calm     81 % 0.0 in /  0 mm 70.0 W/m2 FEW
08:37 -2.8 °F /  -19.3 °C -5.7 °F /  -20.9 °C 1012.4 in /  34279.9 hPa Calm     80 % 0.0 in /  0 mm 84.0 W/m2 FEW
08:42 -2.2 °F /  -19 °C -5.2 °F /  -20.7 °C 1012.4 in /  34279.9 hPa Calm     80 % 0.0 in /  0 mm 113.0 W/m2 FEW
08:47 -1.7 °F /  -18.7 °C -4.8 °F /  -20.4 °C 1012.4 in /  34279.9 hPa Calm     79 % 0.0 in /  0 mm 130.0 W/m2 CLR
08:52 -1.7 °F /  -18.7 °C -5.2 °F /  -20.7 °C 1012.4 in /  34279.9 hPa Calm     77 % 0.0 in /  0 mm 151.0 W/m2 CLR
08:58 -1.7 °F /  -18.7 °C -5.2 °F /  -20.7 °C 1012.4 in /  34279.9 hPa Calm     77 % 0.0 in /  0 mm 128.0 W/m2 CLR
09:02 -1.1 °F /  -18.4 °C -4.6 °F /  -20.3 °C 1012.1 in /  34269.7 hPa Calm     77 % 0.0 in /  0 mm 142.0 W/m2 CLR
09:08 -1.1 °F /  -18.4 °C -4.8 °F /  -20.4 °C 1012.1 in /  34269.7 hPa Calm     76 % 0.0 in /  0 mm 202.0 W/m2 CLR
09:17 -0.6 °F /  -18.1 °C -4.6 °F /  -20.3 °C 1012.4 in /  34279.9 hPa Calm     74 % 0.0 in /  0 mm 241.0 W/m2 CLR
09:23 0.0 °F /  -17.8 °C -4.6 °F /  -20.3 °C 1012.4 in /  34279.9 hPa Calm     71 % 0.0 in /  0 mm 258.0 W/m2 CLR
09:28 0.0 °F /  -17.8 °C -5.2 °F /  -20.7 °C 1012.4 in /  34279.9 hPa Calm     68 % 0.0 in /  0 mm 272.0 W/m2 CLR
09:33 0.6 °F /  -17.4 °C -5.1 °F /  -20.6 °C 1012.1 in /  34269.7 hPa Calm     66 % 0.0 in /  0 mm 292.0 W/m2 CLR
09:38 1.1 °F /  -17.2 °C -4.7 °F /  -20.4 °C 1012.4 in /  34279.9 hPa Calm     65 % 0.0 in /  0 mm 306.0 W/m2 CLR
09:43 2.2 °F /  -16.6 °C -4.3 °F /  -20.2 °C 1012.4 in /  34279.9 hPa Calm     62 % 0.0 in /  0 mm 320.0 W/m2 CLR
09:48 3.3 °F /  -15.9 °C -3.9 °F /  -19.9 °C 1012.4 in /  34279.9 hPa WNW 5.6 mph /  9 km/h 5.6 mph /  9 km/h 59 % 0.0 in /  0 mm 334.0 W/m2 CLR
09:53 4.4 °F /  -15.3 °C -3.3 °F /  -19.6 °C 1012.4 in /  34279.9 hPa NW 3.7 mph /  6 km/h 3.7 mph /  6 km/h 57 % 0.0 in /  0 mm 352.0 W/m2 CLR
09:58 5.0 °F /  -15 °C -3.1 °F /  -19.5 °C 1012.4 in /  34279.9 hPa WNW 20.4 mph /  32.8 km/h 20.4 mph /  32.8 km/h 56 % 0.0 in /  0 mm 366.0 W/m2 CLR
10:03 5.6 °F /  -14.7 °C -2.8 °F /  -19.3 °C 1012.4 in /  34279.9 hPa WNW 18.5 mph /  29.8 km/h 18.5 mph /  29.8 km/h 55 % 0.0 in /  0 mm 380.0 W/m2 CLR
10:08 6.1 °F /  -14.4 °C -2.3 °F /  -19.1 °C 1012.4 in /  34279.9 hPa NW 17.7 mph /  28.5 km/h 17.7 mph /  28.5 km/h 55 % 0.0 in /  0 mm 394.0 W/m2 CLR
10:13 6.1 °F /  -14.4 °C -2.5 °F /  -19.2 °C 1012.4 in /  34279.9 hPa NW 18.5 mph /  29.8 km/h 18.5 mph /  29.8 km/h 54 % 0.0 in /  0 mm 410.0 W/m2 CLR
10:18 6.1 °F /  -14.4 °C -2.8 °F /  -19.3 °C 1012.4 in /  34279.9 hPa WNW 18.5 mph /  29.8 km/h 18.5 mph /  29.8 km/h 53 % 0.0 in /  0 mm 420.0 W/m2 CLR
10:24 6.1 °F /  -14.4 °C -2.8 °F /  -19.3 °C 1012.4 in /  34279.9 hPa West 9.7 mph /  15.6 km/h 9.7 mph /  15.6 km/h 53 % 0.0 in /  0 mm 438.0 W/m2 CLR
10:29 6.7 °F /  -14.1 °C -2.5 °F /  -19.2 °C 1012.4 in /  34279.9 hPa West 5.6 mph /  9 km/h 5.6 mph /  9 km/h 52 % 0.0 in /  0 mm 450.0 W/m2 CLR
10:34 6.7 °F /  -14.1 °C -2.5 °F /  -19.2 °C 1012.4 in /  34279.9 hPa NNE 14.8 mph /  23.8 km/h 14.8 mph /  23.8 km/h 52 % 0.0 in /  0 mm 464.0 W/m2 CLR
10:39 7.2 °F /  -13.8 °C -2.0 °F /  -18.9 °C 1012.4 in /  34279.9 hPa NNW 18.5 mph /  29.8 km/h 18.5 mph /  29.8 km/h 52 % 0.0 in /  0 mm 478.0 W/m2 CLR
10:44 7.2 °F /  -13.8 °C -2.3 °F /  -19.1 °C 1012.4 in /  34279.9 hPa West 13.0 mph /  20.9 km/h 13.0 mph /  20.9 km/h 51 % 0.0 in /  0 mm 490.0 W/m2 CLR
10:49 7.2 °F /  -13.8 °C -2.5 °F /  -19.2 °C 1012.1 in /  34269.7 hPa NW 18.5 mph /  29.8 km/h 18.5 mph /  29.8 km/h 50 % 0.0 in /  0 mm 501.0 W/m2 CLR
10:54 7.2 °F /  -13.8 °C -2.3 °F /  -19.1 °C 1012.1 in /  34269.7 hPa West 16.7 mph /  26.9 km/h 16.7 mph /  26.9 km/h 51 % 0.0 in /  0 mm 512.0 W/m2 CLR
10:59 7.8 °F /  -13.4 °C -2.0 °F /  -18.9 °C 1012.1 in /  34269.7 hPa NW 14.5 mph /  23.3 km/h 14.5 mph /  23.3 km/h 50 % 0.0 in /  0 mm 527.0 W/m2 CLR
11:04 7.8 °F /  -13.4 °C -2.3 °F /  -19.1 °C 1012.1 in /  34269.7 hPa NW 14.8 mph /  23.8 km/h 14.8 mph /  23.8 km/h 49 % 0.0 in /  0 mm 534.0 W/m2 CLR
11:09 7.8 °F /  -13.4 °C -2.3 °F /  -19.1 °C 1012.1 in /  34269.7 hPa West 11.1 mph /  17.9 km/h 11.1 mph /  17.9 km/h 49 % 0.0 in /  0 mm 547.0 W/m2 CLR
11:14 8.3 °F /  -13.2 °C -1.8 °F /  -18.8 °C 1011.7 in /  34256.2 hPa NW 18.5 mph /  29.8 km/h 18.5 mph /  29.8 km/h 49 % 0.0 in /  0 mm 557.0 W/m2 CLR
11:19 8.9 °F /  -12.8 °C -1.0 °F /  -18.3 °C 1011.7 in /  34256.2 hPa NW 18.5 mph /  29.8 km/h 18.5 mph /  29.8 km/h 50 % 0.0 in /  0 mm 568.0 W/m2 CLR
11:24 8.9 °F /  -12.8 °C -1.6 °F /  -18.7 °C 1012.1 in /  34269.7 hPa West 3.7 mph /  6 km/h 3.7 mph /  6 km/h 48 % 0.0 in /  0 mm 577.0 W/m2 CLR
11:29 8.9 °F /  -12.8 °C -1.8 °F /  -18.8 °C 1011.7 in /  34256.2 hPa NW 16.7 mph /  26.9 km/h 16.7 mph /  26.9 km/h 47 % 0.0 in /  0 mm 584.0 W/m2 CLR
11:34 8.9 °F /  -12.8 °C -1.8 °F /  -18.8 °C 1011.7 in /  34256.2 hPa West 5.6 mph /  9 km/h 5.6 mph /  9 km/h 47 % 0.0 in /  0 mm 591.0 W/m2 CLR
11:39 8.9 °F /  -12.8 °C -1.6 °F /  -18.7 °C 1011.7 in /  34256.2 hPa Calm   0.3 mph /  0.5 km/h 48 % 0.0 in /  0 mm 603.0 W/m2 CLR
11:44 9.4 °F /  -12.6 °C -1.6 °F /  -18.7 °C 1011.7 in /  34256.2 hPa WNW 16.7 mph /  26.9 km/h 16.7 mph /  26.9 km/h 46 % 0.0 in /  0 mm 608.0 W/m2 CLR
11:49 9.4 °F /  -12.6 °C -1.3 °F /  -18.5 °C 1011.7 in /  34256.2 hPa WNW 14.8 mph /  23.8 km/h 14.8 mph /  23.8 km/h 47 % 0.0 in /  0 mm 613.0 W/m2 CLR
11:54 9.4 °F /  -12.6 °C -1.9 °F /  -18.8 °C 1011.7 in /  34256.2 hPa West 20.9 mph /  33.6 km/h 20.9 mph /  33.6 km/h 45 % 0.0 in /  0 mm 621.0 W/m2 CLR
11:59 10.0 °F /  -12.2 °C -1.1 °F /  -18.4 °C 1011.4 in /  34246 hPa West 18.5 mph /  29.8 km/h 18.5 mph /  29.8 km/h 46 % 0.0 in /  0 mm 629.0 W/m2 CLR
12:04 10.0 °F /  -12.2 °C -1.4 °F /  -18.6 °C 1011.4 in /  34246 hPa West 3.7 mph /  6 km/h 3.7 mph /  6 km/h 45 % 0.0 in /  0 mm 633.0 W/m2 CLR
12:09 10.6 °F /  -11.9 °C -0.9 °F /  -18.3 °C 1011.4 in /  34246 hPa WNW 20.4 mph /  32.8 km/h 20.4 mph /  32.8 km/h 45 % 0.0 in /  0 mm 640.0 W/m2 CLR
12:14 10.6 °F /  -11.9 °C -1.2 °F /  -18.4 °C 1011.4 in /  34246 hPa NW 20.4 mph /  32.8 km/h 20.4 mph /  32.8 km/h 44 % 0.0 in /  0 mm 643.0 W/m2 CLR
12:19 10.6 °F /  -11.9 °C -0.9 °F /  -18.3 °C 1011.4 in /  34246 hPa WNW 13.0 mph /  20.9 km/h 13.0 mph /  20.9 km/h 45 % 0.0 in /  0 mm 652.0 W/m2 CLR
12:24 10.6 °F /  -11.9 °C -1.5 °F /  -18.6 °C 1011.4 in /  34246 hPa WNW 22.2 mph /  35.7 km/h 22.2 mph /  35.7 km/h 43 % 0.0 in /  0 mm 657.0 W/m2 CLR
12:29 10.6 °F /  -11.9 °C -1.8 °F /  -18.8 °C 1011.1 in /  34235.8 hPa NW 16.7 mph /  26.9 km/h 16.7 mph /  26.9 km/h 42 % 0.0 in /  0 mm 663.0 W/m2 CLR
12:34 10.6 °F /  -11.9 °C -1.5 °F /  -18.6 °C 1011.1 in /  34235.8 hPa WNW 18.5 mph /  29.8 km/h 18.5 mph /  29.8 km/h 43 % 0.0 in /  0 mm 663.0 W/m2 CLR
12:39 11.1 °F /  -11.6 °C -1.3 °F /  -18.5 °C 1011.1 in /  34235.8 hPa WNW 18.5 mph /  29.8 km/h 18.5 mph /  29.8 km/h 42 % 0.0 in /  0 mm 664.0 W/m2 CLR
12:44 11.1 °F /  -11.6 °C -1.0 °F /  -18.3 °C 1011.1 in /  34235.8 hPa NW 14.8 mph /  23.8 km/h 14.8 mph /  23.8 km/h 43 % 0.0 in /  0 mm 671.0 W/m2 CLR
12:49 11.1 °F /  -11.6 °C -1.7 °F /  -18.7 °C 1011.1 in /  34235.8 hPa NW 22.2 mph /  35.7 km/h 22.2 mph /  35.7 km/h 41 % 0.0 in /  0 mm 671.0 W/m2 CLR
12:54 11.1 °F /  -11.6 °C -1.3 °F /  -18.5 °C 1010.7 in /  34222.3 hPa WNW 14.8 mph /  23.8 km/h 14.8 mph /  23.8 km/h 42 % 0.0 in /  0 mm 668.0 W/m2 CLR
12:59 11.1 °F /  -11.6 °C -1.0 °F /  -18.3 °C 1010.7 in /  34222.3 hPa NW 18.5 mph /  29.8 km/h 18.5 mph /  29.8 km/h 43 % 0.0 in /  0 mm 673.0 W/m2 CLR
13:04 11.7 °F /  -11.3 °C -1.5 °F /  -18.6 °C 1010.7 in /  34222.3 hPa WNW 18.5 mph /  29.8 km/h 18.5 mph /  29.8 km/h 40 % 0.0 in /  0 mm 675.0 W/m2 CLR
13:09 11.7 °F /  -11.3 °C -1.5 °F /  -18.6 °C 1010.7 in /  34222.3 hPa NNW 18.5 mph /  29.8 km/h 18.5 mph /  29.8 km/h 40 % 0.0 in /  0 mm 682.0 W/m2 CLR
13:14 12.2 °F /  -11 °C -1.0 °F /  -18.3 °C 1010.7 in /  34222.3 hPa NW 14.8 mph /  23.8 km/h 14.8 mph /  23.8 km/h 40 % 0.0 in /  0 mm 684.0 W/m2 CLR
13:19 12.2 °F /  -11 °C -1.3 °F /  -18.5 °C 1010.7 in /  34222.3 hPa NNW 22.2 mph /  35.7 km/h 22.2 mph /  35.7 km/h 39 % 0.0 in /  0 mm 680.0 W/m2 CLR
13:24 11.7 °F /  -11.3 °C -2.2 °F /  -19 °C 1010.4 in /  34212.1 hPa NNW 25.7 mph /  41.4 km/h 25.7 mph /  41.4 km/h 38 % 0.0 in /  0 mm 684.0 W/m2 CLR
13:29 11.7 °F /  -11.3 °C -1.8 °F /  -18.8 °C 1010.4 in /  34212.1 hPa NNW 18.5 mph /  29.8 km/h 18.5 mph /  29.8 km/h 39 % 0.0 in /  0 mm 677.0 W/m2 CLR
13:34 11.7 °F /  -11.3 °C -2.2 °F /  -19 °C 1010.0 in /  34198.6 hPa NNW 18.5 mph /  29.8 km/h 18.5 mph /  29.8 km/h 38 % 0.0 in /  0 mm 677.0 W/m2 CLR
13:39 11.7 °F /  -11.3 °C -2.2 °F /  -19 °C 1010.0 in /  34198.6 hPa NNW 22.2 mph /  35.7 km/h 22.2 mph /  35.7 km/h 38 % 0.0 in /  0 mm 675.0 W/m2 CLR
13:44 11.7 °F /  -11.3 °C -1.8 °F /  -18.8 °C 1010.0 in /  34198.6 hPa NW 20.4 mph /  32.8 km/h 20.4 mph /  32.8 km/h 39 % 0.0 in /  0 mm 670.0 W/m2 CLR
13:49 11.7 °F /  -11.3 °C -1.8 °F /  -18.8 °C 1010.0 in /  34198.6 hPa NW 22.2 mph /  35.7 km/h 22.2 mph /  35.7 km/h 39 % 0.0 in /  0 mm 671.0 W/m2 CLR
13:54 12.2 °F /  -11 °C -1.7 °F /  -18.7 °C 1009.7 in /  34188.4 hPa NNW 24.1 mph /  38.8 km/h 24.1 mph /  38.8 km/h 38 % 0.0 in /  0 mm 671.0 W/m2 CLR
13:59 12.2 °F /  -11 °C -1.7 °F /  -18.7 °C 1009.7 in /  34188.4 hPa NNW 18.5 mph /  29.8 km/h 18.5 mph /  29.8 km/h 38 % 0.0 in /  0 mm 664.0 W/m2 CLR
14:04 12.2 °F /  -11 °C -1.7 °F /  -18.7 °C 1009.4 in /  34178.3 hPa WNW 16.7 mph /  26.9 km/h 16.7 mph /  26.9 km/h 38 % 0.0 in /  0 mm 659.0 W/m2 CLR
14:09 12.2 °F /  -11 °C -2.1 °F /  -18.9 °C 1009.4 in /  34178.3 hPa NW 14.8 mph /  23.8 km/h 14.8 mph /  23.8 km/h 37 % 0.0 in /  0 mm 656.0 W/m2 CLR
14:14 12.2 °F /  -11 °C -1.7 °F /  -18.7 °C 1009.4 in /  34178.3 hPa NNW 18.5 mph /  29.8 km/h 18.5 mph /  29.8 km/h 38 % 0.0 in /  0 mm 652.0 W/m2 CLR
14:19 12.2 °F /  -11 °C -2.1 °F /  -18.9 °C 1009.4 in /  34178.3 hPa NW 16.7 mph /  26.9 km/h 16.7 mph /  26.9 km/h 37 % 0.0 in /  0 mm 647.0 W/m2 CLR
14:24 12.2 °F /  -11 °C -1.3 °F /  -18.5 °C 1009.0 in /  34164.7 hPa NNW 24.1 mph /  38.8 km/h 24.1 mph /  38.8 km/h 39 % 0.0 in /  0 mm 636.0 W/m2 CLR
14:29 12.2 °F /  -11 °C -1.7 °F /  -18.7 °C 1009.0 in /  34164.7 hPa NW 24.1 mph /  38.8 km/h 24.1 mph /  38.8 km/h 38 % 0.0 in /  0 mm 631.0 W/m2 CLR
14:34 12.2 °F /  -11 °C -1.7 °F /  -18.7 °C 1009.0 in /  34164.7 hPa NNW 22.2 mph /  35.7 km/h 22.2 mph /  35.7 km/h 38 % 0.0 in /  0 mm 626.0 W/m2 CLR
14:39 12.2 °F /  -11 °C -2.1 °F /  -18.9 °C 1009.0 in /  34164.7 hPa WNW 24.1 mph /  38.8 km/h 24.1 mph /  38.8 km/h 37 % 0.0 in /  0 mm 615.0 W/m2 CLR
14:44 12.2 °F /  -11 °C -1.7 °F /  -18.7 °C 1008.7 in /  34154.6 hPa NW 22.5 mph /  36.2 km/h 22.5 mph /  36.2 km/h 38 % 0.0 in /  0 mm 612.0 W/m2 CLR
14:49 12.2 °F /  -11 °C -2.1 °F /  -18.9 °C 1008.7 in /  34154.6 hPa NW 14.8 mph /  23.8 km/h 14.8 mph /  23.8 km/h 37 % 0.0 in /  0 mm 608.0 W/m2 CLR
14:54 12.8 °F /  -10.7 °C -2.7 °F /  -19.3 °C 1008.4 in /  34144.4 hPa NW 22.2 mph /  35.7 km/h 22.2 mph /  35.7 km/h 34 % 0.0 in /  0 mm 605.0 W/m2 CLR
14:59 12.2 °F /  -11 °C -2.8 °F /  -19.3 °C 1008.4 in /  34144.4 hPa WNW 18.5 mph /  29.8 km/h 18.5 mph /  29.8 km/h 35 % 0.0 in /  0 mm 582.0 W/m2 CLR
15:04 12.8 °F /  -10.7 °C -2.7 °F /  -19.3 °C 1008.4 in /  34144.4 hPa West 18.5 mph /  29.8 km/h 18.5 mph /  29.8 km/h 34 % 0.0 in /  0 mm 582.0 W/m2 CLR
15:05 12.8 °F /  -10.7 °C -3.1 °F /  -19.5 °C 1008.4 in /  34144.4 hPa NW 18.5 mph /  29.8 km/h 18.5 mph /  29.8 km/h 33 % 0.0 in /  0 mm 582.0 W/m2 CLR
15:10 12.8 °F /  -10.7 °C -3.1 °F /  -19.5 °C 1008.4 in /  34144.4 hPa North 20.9 mph /  33.6 km/h 20.9 mph /  33.6 km/h 33 % 0.0 in /  0 mm 575.0 W/m2 CLR
15:15 13.3 °F /  -10.4 °C -3.1 °F /  -19.5 °C 1008.4 in /  34144.4 hPa North 25.9 mph /  41.7 km/h 25.9 mph /  41.7 km/h 32 % 0.0 in /  0 mm 563.0 W/m2 CLR
15:20 13.3 °F /  -10.4 °C -3.1 °F /  -19.5 °C 1008.4 in /  34144.4 hPa NNW 27.8 mph /  44.7 km/h 27.8 mph /  44.7 km/h 32 % 0.0 in /  0 mm 552.0 W/m2 CLR
15:25 13.3 °F /  -10.4 °C -3.1 °F /  -19.5 °C 1008.0 in /  34130.9 hPa NW 25.9 mph /  41.7 km/h 25.9 mph /  41.7 km/h 32 % 0.0 in /  0 mm 541.0 W/m2 CLR
15:30 13.3 °F /  -10.4 °C -3.4 °F /  -19.7 °C 1008.0 in /  34130.9 hPa NW 22.2 mph /  35.7 km/h 22.2 mph /  35.7 km/h 31 % 0.0 in /  0 mm 531.0 W/m2 CLR
15:35 13.3 °F /  -10.4 °C -3.4 °F /  -19.7 °C 1008.0 in /  34130.9 hPa North 27.8 mph /  44.7 km/h 27.8 mph /  44.7 km/h 31 % 0.0 in /  0 mm 517.0 W/m2 CLR
15:40 13.3 °F /  -10.4 °C -3.4 °F /  -19.7 °C 1008.0 in /  34130.9 hPa NNW 25.9 mph /  41.7 km/h 25.9 mph /  41.7 km/h 31 % 0.0 in /  0 mm 503.0 W/m2 CLR
15:45 13.3 °F /  -10.4 °C -3.4 °F /  -19.7 °C 1007.7 in /  34120.7 hPa NW 24.1 mph /  38.8 km/h 24.1 mph /  38.8 km/h 31 % 0.0 in /  0 mm 497.0 W/m2 CLR
15:50 13.3 °F /  -10.4 °C -3.4 °F /  -19.7 °C 1007.7 in /  34120.7 hPa NNW 27.8 mph /  44.7 km/h 27.8 mph /  44.7 km/h 31 % 0.0 in /  0 mm 485.0 W/m2 CLR
15:55 12.8 °F /  -10.7 °C -3.9 °F /  -19.9 °C 1007.7 in /  34120.7 hPa North 20.4 mph /  32.8 km/h 20.4 mph /  32.8 km/h 31 % 0.0 in /  0 mm 473.0 W/m2 CLR
16:00 12.8 °F /  -10.7 °C -3.9 °F /  -19.9 °C 1007.3 in /  34107.2 hPa NW 24.1 mph /  38.8 km/h 24.1 mph /  38.8 km/h 31 % 0.0 in /  0 mm 461.0 W/m2 CLR
16:05 13.3 °F /  -10.4 °C -3.4 °F /  -19.7 °C 1007.3 in /  34107.2 hPa WNW 22.2 mph /  35.7 km/h 22.2 mph /  35.7 km/h 31 % 0.0 in /  0 mm 452.0 W/m2 CLR
16:10 13.3 °F /  -10.4 °C -3.1 °F /  -19.5 °C 1007.3 in /  34107.2 hPa NNW 27.8 mph /  44.7 km/h 27.8 mph /  44.7 km/h 32 % 0.0 in /  0 mm 432.0 W/m2 CLR
16:15 13.3 °F /  -10.4 °C -3.1 °F /  -19.5 °C 1007.3 in /  34107.2 hPa NNW 24.1 mph /  38.8 km/h 24.1 mph /  38.8 km/h 32 % 0.0 in /  0 mm 417.0 W/m2 CLR
16:20 13.3 °F /  -10.4 °C -3.1 °F /  -19.5 °C 1007.3 in /  34107.2 hPa NNW 25.9 mph /  41.7 km/h 25.9 mph /  41.7 km/h 32 % 0.0 in /  0 mm 406.0 W/m2 CLR
16:25 12.8 °F /  -10.7 °C -2.7 °F /  -19.3 °C 1007.3 in /  34107.2 hPa North 27.8 mph /  44.7 km/h 27.8 mph /  44.7 km/h 34 % 0.0 in /  0 mm 380.0 W/m2 CLR
16:30 12.8 °F /  -10.7 °C -3.1 °F /  -19.5 °C 1007.0 in /  34097 hPa North 27.8 mph /  44.7 km/h 27.8 mph /  44.7 km/h 33 % 0.0 in /  0 mm 373.0 W/m2 CLR
16:35 12.8 °F /  -10.7 °C -2.7 °F /  -19.3 °C 1007.0 in /  34097 hPa NNW 25.9 mph /  41.7 km/h 25.9 mph /  41.7 km/h 34 % 0.0 in /  0 mm 353.0 W/m2 CLR
16:40 12.8 °F /  -10.7 °C -2.3 °F /  -19.1 °C 1007.0 in /  34097 hPa NNW 20.4 mph /  32.8 km/h 20.4 mph /  32.8 km/h 35 % 0.0 in /  0 mm 336.0 W/m2 CLR
16:45 12.8 °F /  -10.7 °C -3.1 °F /  -19.5 °C 1007.0 in /  34097 hPa North 37.0 mph /  59.5 km/h 37.0 mph /  59.5 km/h 33 % 0.0 in /  0 mm 330.0 W/m2 CLR
16:50 12.8 °F /  -10.7 °C -3.1 °F /  -19.5 °C 1007.0 in /  34097 hPa North 27.8 mph /  44.7 km/h 27.8 mph /  44.7 km/h 33 % 0.0 in /  0 mm 309.0 W/m2 CLR
16:55 12.8 °F /  -10.7 °C -3.1 °F /  -19.5 °C 1007.0 in /  34097 hPa NNW 29.6 mph /  47.6 km/h 29.6 mph /  47.6 km/h 33 % 0.0 in /  0 mm 292.0 W/m2 CLR
17:00 12.8 °F /  -10.7 °C -2.7 °F /  -19.3 °C 1006.7 in /  34086.9 hPa North 35.2 mph /  56.6 km/h 35.2 mph /  56.6 km/h 34 % 0.0 in /  0 mm 279.0 W/m2 CLR
17:05 12.2 °F /  -11 °C -3.2 °F /  -19.6 °C 1007.0 in /  34097 hPa North 25.9 mph /  41.7 km/h 25.9 mph /  41.7 km/h 34 % 0.0 in /  0 mm 258.0 W/m2 CLR
17:10 11.7 °F /  -11.3 °C -3.7 °F /  -19.8 °C 1007.0 in /  34097 hPa NNW 18.5 mph /  29.8 km/h 18.5 mph /  29.8 km/h 34 % 0.0 in /  0 mm 243.0 W/m2 CLR
17:15 11.7 °F /  -11.3 °C -3.7 °F /  -19.8 °C 1007.0 in /  34097 hPa North 24.1 mph /  38.8 km/h 24.1 mph /  38.8 km/h 34 % 0.0 in /  0 mm 227.0 W/m2 CLR
17:20 11.7 °F /  -11.3 °C -3.7 °F /  -19.8 °C 1007.0 in /  34097 hPa North 17.7 mph /  28.5 km/h 17.7 mph /  28.5 km/h 34 % 0.0 in /  0 mm 206.0 W/m2 CLR
17:25 11.7 °F /  -11.3 °C -3.3 °F /  -19.6 °C 1006.7 in /  34086.9 hPa North 18.5 mph /  29.8 km/h 18.5 mph /  29.8 km/h 35 % 0.0 in /  0 mm 188.0 W/m2 CLR
17:44 11.1 °F /  -11.6 °C -3.8 °F /  -19.9 °C 1006.7 in /  34086.9 hPa NE 22.5 mph /  36.2 km/h 22.5 mph /  36.2 km/h 35 % 0.0 in /  0 mm 125.0 W/m2 CLR
17:45 11.1 °F /  -11.6 °C -3.8 °F /  -19.9 °C 1006.7 in /  34086.9 hPa NW 14.8 mph /  23.8 km/h 14.8 mph /  23.8 km/h 35 % 0.0 in /  0 mm 121.0 W/m2 CLR
17:50 11.1 °F /  -11.6 °C -4.6 °F /  -20.3 °C 1006.7 in /  34086.9 hPa NNW 18.5 mph /  29.8 km/h 18.5 mph /  29.8 km/h 33 % 0.0 in /  0 mm 105.0 W/m2 CLR
17:55 11.1 °F /  -11.6 °C -4.2 °F /  -20.1 °C 1006.7 in /  34086.9 hPa North 16.1 mph /  25.9 km/h 16.1 mph /  25.9 km/h 34 % 0.0 in /  0 mm 91.0 W/m2 CLR
18:00 11.1 °F /  -11.6 °C -4.6 °F /  -20.3 °C 1006.3 in /  34073.3 hPa NNW 19.3 mph /  31.1 km/h 19.3 mph /  31.1 km/h 33 % 0.0 in /  0 mm 77.0 W/m2 FEW
18:05 11.1 °F /  -11.6 °C -5.0 °F /  -20.6 °C 1006.7 in /  34086.9 hPa NNW 18.5 mph /  29.8 km/h 18.5 mph /  29.8 km/h 32 % 0.0 in /  0 mm 60.0 W/m2 SCT
18:10 11.1 °F /  -11.6 °C -5.0 °F /  -20.6 °C 1006.7 in /  34086.9 hPa NNW 12.9 mph /  20.8 km/h 12.9 mph /  20.8 km/h 32 % 0.0 in /  0 mm 49.0 W/m2 SCT
18:15 10.6 °F /  -11.9 °C -5.5 °F /  -20.8 °C 1006.7 in /  34086.9 hPa NW 13.0 mph /  20.9 km/h 13.0 mph /  20.9 km/h 32 % 0.0 in /  0 mm 42.0 W/m2 BKN
18:20 10.6 °F /  -11.9 °C -5.9 °F /  -21.1 °C 1006.7 in /  34086.9 hPa North 18.5 mph /  29.8 km/h 18.5 mph /  29.8 km/h 31 % 0.0 in /  0 mm 30.0 W/m2 BKN
18:25 10.6 °F /  -11.9 °C -5.9 °F /  -21.1 °C 1006.7 in /  34086.9 hPa NNW 14.5 mph /  23.3 km/h 14.5 mph /  23.3 km/h 31 % 0.0 in /  0 mm 21.0 W/m2 BKN
18:30 10.6 °F /  -11.9 °C -6.3 °F /  -21.3 °C 1006.7 in /  34086.9 hPa NNW 16.7 mph /  26.9 km/h 16.7 mph /  26.9 km/h 30 % 0.0 in /  0 mm 16.0 W/m2 BKN
18:35 10.0 °F /  -12.2 °C -5.9 °F /  -21.1 °C 1006.7 in /  34086.9 hPa Calm     32 % 0.0 in /  0 mm 14.0 W/m2 BKN
18:40 9.4 °F /  -12.6 °C -6.9 °F /  -21.6 °C 1007.0 in /  34097 hPa NNW 16.7 mph /  26.9 km/h 16.7 mph /  26.9 km/h 31 % 0.0 in /  0 mm 9.0 W/m2 BKN
18:45 9.4 °F /  -12.6 °C -7.3 °F /  -21.8 °C 1007.0 in /  34097 hPa NW 22.2 mph /  35.7 km/h 22.2 mph /  35.7 km/h 30 % 0.0 in /  0 mm 5.0 W/m2 OVC
18:50 9.4 °F /  -12.6 °C -7.3 °F /  -21.8 °C 1007.0 in /  34097 hPa North 18.5 mph /  29.8 km/h 18.5 mph /  29.8 km/h 30 % 0.0 in /  0 mm 0.0 W/m2 OVC
18:55 9.4 °F /  -12.6 °C -7.3 °F /  -21.8 °C 1007.3 in /  34107.2 hPa NW 18.5 mph /  29.8 km/h 18.5 mph /  29.8 km/h 30 % 0.0 in /  0 mm 0.0 W/m2 OVC
19:00 8.9 °F /  -12.8 °C -7.8 °F /  -22.1 °C 1007.0 in /  34097 hPa NNW 9.3 mph /  15 km/h 9.3 mph /  15 km/h 30 % 0.0 in /  0 mm 0.0 W/m2 CLR
19:05 8.3 °F /  -13.2 °C -8.3 °F /  -22.4 °C 1007.3 in /  34107.2 hPa NW 18.5 mph /  29.8 km/h 18.5 mph /  29.8 km/h 30 % 0.0 in /  0 mm 0.0 W/m2 CLR
19:10 7.8 °F /  -13.4 °C -8.7 °F /  -22.6 °C 1007.3 in /  34107.2 hPa NNW 29.6 mph /  47.6 km/h 29.6 mph /  47.6 km/h 30 % 0.0 in /  0 mm 0.0 W/m2 CLR
19:15 8.3 °F /  -13.2 °C -8.3 °F /  -22.4 °C 1007.3 in /  34107.2 hPa North 19.3 mph /  31.1 km/h 19.3 mph /  31.1 km/h 30 % 0.0 in /  0 mm 0.0 W/m2 CLR
19:20 8.3 °F /  -13.2 °C -8.3 °F /  -22.4 °C 1007.7 in /  34120.7 hPa NNW 20.4 mph /  32.8 km/h 20.4 mph /  32.8 km/h 30 % 0.0 in /  0 mm 0.0 W/m2 CLR
19:25 8.3 °F /  -13.2 °C -8.3 °F /  -22.4 °C 1007.7 in /  34120.7 hPa NNW 22.5 mph /  36.2 km/h 22.5 mph /  36.2 km/h 30 % 0.0 in /  0 mm 0.0 W/m2 CLR
19:30 8.3 °F /  -13.2 °C -7.8 °F /  -22.1 °C 1007.7 in /  34120.7 hPa West 29.0 mph /  46.7 km/h 29.0 mph /  46.7 km/h 31 % 0.0 in /  0 mm 0.0 W/m2 CLR
19:35 8.3 °F /  -13.2 °C -7.8 °F /  -22.1 °C 1007.7 in /  34120.7 hPa NW 11.1 mph /  17.9 km/h 11.1 mph /  17.9 km/h 31 % 0.0 in /  0 mm 0.0 W/m2 CLR
19:40 7.8 °F /  -13.4 °C -8.3 °F /  -22.4 °C 1007.7 in /  34120.7 hPa NW 16.7 mph /  26.9 km/h 16.7 mph /  26.9 km/h 31 % 0.0 in /  0 mm 0.0 W/m2 CLR
19:45 7.8 °F /  -13.4 °C -8.3 °F /  -22.4 °C 1007.7 in /  34120.7 hPa NW 1.6 mph /  2.6 km/h   31 % 0.0 in /  0 mm 0.0 W/m2 CLR
19:50 6.7 °F /  -14.1 °C -9.3 °F /  -22.9 °C 1007.7 in /  34120.7 hPa WNW 7.4 mph /  11.9 km/h 7.4 mph /  11.9 km/h 31 % 0.0 in /  0 mm 0.0 W/m2 CLR
19:55 6.1 °F /  -14.4 °C -9.4 °F /  -23 °C 1007.7 in /  34120.7 hPa NW 14.8 mph /  23.8 km/h 14.8 mph /  23.8 km/h 32 % 0.0 in /  0 mm 0.0 W/m2 CLR
20:00 6.7 °F /  -14.1 °C -8.9 °F /  -22.7 °C 1007.7 in /  34120.7 hPa WSW 1.9 mph /  3.1 km/h 1.9 mph /  3.1 km/h 32 % 0.0 in /  0 mm 0.0 W/m2 CLR
20:05 6.1 °F /  -14.4 °C -9.4 °F /  -23 °C 1007.7 in /  34120.7 hPa WNW 14.5 mph /  23.3 km/h 14.5 mph /  23.3 km/h 32 % 0.0 in /  0 mm 0.0 W/m2 CLR
20:10 6.1 °F /  -14.4 °C -9.4 °F /  -23 °C 1007.7 in /  34120.7 hPa West 11.1 mph /  17.9 km/h 11.1 mph /  17.9 km/h 32 % 0.0 in /  0 mm 0.0 W/m2 CLR
20:15 5.6 °F /  -14.7 °C -9.9 °F /  -23.3 °C 1007.7 in /  34120.7 hPa Calm     32 % 0.0 in /  0 mm 0.0 W/m2 CLR
20:20 5.6 °F /  -14.7 °C -9.5 °F /  -23.1 °C 1007.7 in /  34120.7 hPa WSW 5.6 mph /  9 km/h 5.6 mph /  9 km/h 33 % 0.0 in /  0 mm 0.0 W/m2 CLR
20:25 5.6 °F /  -14.7 °C -9.1 °F /  -22.8 °C 1007.7 in /  34120.7 hPa WNW 9.3 mph /  15 km/h 9.3 mph /  15 km/h 34 % 0.0 in /  0 mm 0.0 W/m2 CLR
20:30 5.0 °F /  -15 °C -9.6 °F /  -23.1 °C 1008.0 in /  34130.9 hPa WNW 3.7 mph /  6 km/h 3.7 mph /  6 km/h 34 % 0.0 in /  0 mm 0.0 W/m2 CLR
20:35 4.4 °F /  -15.3 °C -9.7 °F /  -23.2 °C 1007.7 in /  34120.7 hPa NW 1.9 mph /  3.1 km/h 1.9 mph /  3.1 km/h 35 % 0.0 in /  0 mm 0.0 W/m2 CLR
20:40 4.4 °F /  -15.3 °C -9.3 °F /  -22.9 °C 1008.0 in /  34130.9 hPa NW 5.6 mph /  9 km/h 5.6 mph /  9 km/h 36 % 0.0 in /  0 mm 0.0 W/m2 CLR
20:45 3.9 °F /  -15.6 °C -9.8 °F /  -23.2 °C 1008.0 in /  34130.9 hPa NW 7.4 mph /  11.9 km/h   36 % 0.0 in /  0 mm 0.0 W/m2 CLR
20:50 3.3 °F /  -15.9 °C -10.3 °F /  -23.5 °C 1008.0 in /  34130.9 hPa NW 5.6 mph /  9 km/h   36 % 0.0 in /  0 mm 0.0 W/m2 CLR
20:55 3.3 °F /  -15.9 °C -10.0 °F /  -23.3 °C 1008.0 in /  34130.9 hPa Calm     37 % 0.0 in /  0 mm 0.0 W/m2 CLR
21:00 2.8 °F /  -16.2 °C -10.5 °F /  -23.6 °C 1008.0 in /  34130.9 hPa Calm     37 % 0.0 in /  0 mm 0.0 W/m2 CLR
21:05 2.8 °F /  -16.2 °C -10.5 °F /  -23.6 °C 1008.4 in /  34144.4 hPa WNW 1.9 mph /  3.1 km/h   37 % 0.0 in /  0 mm 0.0 W/m2 CLR
21:10 2.8 °F /  -16.2 °C -10.2 °F /  -23.4 °C 1008.4 in /  34144.4 hPa WNW 9.3 mph /  15 km/h 9.3 mph /  15 km/h 38 % 0.0 in /  0 mm 0.0 W/m2 CLR
21:15 2.8 °F /  -16.2 °C -10.2 °F /  -23.4 °C 1008.4 in /  34144.4 hPa WNW 13.0 mph /  20.9 km/h 13.0 mph /  20.9 km/h 38 % 0.0 in /  0 mm 0.0 W/m2 CLR
21:20 3.3 °F /  -15.9 °C -10.0 °F /  -23.3 °C 1008.4 in /  34144.4 hPa NW 18.5 mph /  29.8 km/h 18.5 mph /  29.8 km/h 37 % 0.0 in /  0 mm 0.0 W/m2 CLR
21:25 4.4 °F /  -15.3 °C -9.0 °F /  -22.8 °C 1008.4 in /  34144.4 hPa NW 18.5 mph /  29.8 km/h 18.5 mph /  29.8 km/h 37 % 0.0 in /  0 mm 0.0 W/m2 CLR
21:30 5.6 °F /  -14.7 °C -8.0 °F /  -22.2 °C 1008.7 in /  34154.6 hPa NW 16.7 mph /  26.9 km/h 16.7 mph /  26.9 km/h 37 % 0.0 in /  0 mm 0.0 W/m2 CLR
21:35 5.0 °F /  -15 °C -8.2 °F /  -22.3 °C 1008.7 in /  34154.6 hPa NW 22.2 mph /  35.7 km/h 22.2 mph /  35.7 km/h 38 % 0.0 in /  0 mm 0.0 W/m2 CLR
21:40 5.6 °F /  -14.7 °C -7.7 °F /  -22.1 °C 1008.7 in /  34154.6 hPa NW 18.5 mph /  29.8 km/h 18.5 mph /  29.8 km/h 38 % 0.0 in /  0 mm 0.0 W/m2 CLR
21:45 5.6 °F /  -14.7 °C -7.3 °F /  -21.8 °C 1009.0 in /  34164.7 hPa NW 22.2 mph /  35.7 km/h 22.2 mph /  35.7 km/h 39 % 0.0 in /  0 mm 0.0 W/m2 CLR
21:50 5.6 °F /  -14.7 °C -7.3 °F /  -21.8 °C 1009.0 in /  34164.7 hPa NW 24.1 mph /  38.8 km/h 24.1 mph /  38.8 km/h 39 % 0.0 in /  0 mm 0.0 W/m2 CLR
21:55 5.6 °F /  -14.7 °C -7.0 °F /  -21.7 °C 1009.4 in /  34178.3 hPa NNW 18.5 mph /  29.8 km/h 18.5 mph /  29.8 km/h 40 % 0.0 in /  0 mm 0.0 W/m2 CLR
22:00 5.6 °F /  -14.7 °C -7.0 °F /  -21.7 °C 1009.4 in /  34178.3 hPa NNW 22.2 mph /  35.7 km/h 22.2 mph /  35.7 km/h 40 % 0.0 in /  0 mm 0.0 W/m2 CLR
22:05 5.0 °F /  -15 °C -7.5 °F /  -21.9 °C 1009.4 in /  34178.3 hPa NW 22.2 mph /  35.7 km/h 22.2 mph /  35.7 km/h 40 % 0.0 in /  0 mm 0.0 W/m2 CLR
22:10 5.0 °F /  -15 °C -7.5 °F /  -21.9 °C 1009.4 in /  34178.3 hPa NW 24.1 mph /  38.8 km/h 24.1 mph /  38.8 km/h 40 % 0.0 in /  0 mm 0.0 W/m2 CLR
22:15 5.0 °F /  -15 °C -7.5 °F /  -21.9 °C 1009.7 in /  34188.4 hPa NW 18.5 mph /  29.8 km/h 18.5 mph /  29.8 km/h 40 % 0.0 in /  0 mm 0.0 W/m2 CLR
22:20 4.4 °F /  -15.3 °C -7.7 °F /  -22.1 °C 1009.4 in /  34178.3 hPa NW 18.5 mph /  29.8 km/h 18.5 mph /  29.8 km/h 41 % 0.0 in /  0 mm 0.0 W/m2 CLR
22:25 4.4 °F /  -15.3 °C -7.7 °F /  -22.1 °C 1009.4 in /  34178.3 hPa NW 22.2 mph /  35.7 km/h 22.2 mph /  35.7 km/h 41 % 0.0 in /  0 mm 0.0 W/m2 CLR
22:30 4.4 °F /  -15.3 °C -7.7 °F /  -22.1 °C 1009.7 in /  34188.4 hPa WNW 20.4 mph /  32.8 km/h 20.4 mph /  32.8 km/h 41 % 0.0 in /  0 mm 0.0 W/m2 CLR
22:35 4.4 °F /  -15.3 °C -7.7 °F /  -22.1 °C 1009.7 in /  34188.4 hPa WNW 22.2 mph /  35.7 km/h 22.2 mph /  35.7 km/h 41 % 0.0 in /  0 mm 0.0 W/m2 CLR
22:40 4.4 °F /  -15.3 °C -7.7 °F /  -22.1 °C 1009.7 in /  34188.4 hPa WNW 9.7 mph /  15.6 km/h 11.3 mph /  18.2 km/h 41 % 0.0 in /  0 mm 0.0 W/m2 CLR
22:46 4.4 °F /  -15.3 °C -7.7 °F /  -22.1 °C 1010.0 in /  34198.6 hPa Calm     41 % 0.0 in /  0 mm 0.0 W/m2 CLR
22:51 4.4 °F /  -15.3 °C -7.7 °F /  -22.1 °C 1010.0 in /  34198.6 hPa Calm     41 % 0.0 in /  0 mm 0.0 W/m2 CLR
22:56 3.9 °F /  -15.6 °C -8.2 °F /  -22.3 °C 1010.0 in /  34198.6 hPa West 14.8 mph /  23.8 km/h 14.8 mph /  23.8 km/h 41 % 0.0 in /  0 mm 0.0 W/m2 CLR
23:01 3.9 °F /  -15.6 °C -8.2 °F /  -22.3 °C 1010.0 in /  34198.6 hPa WNW 18.5 mph /  29.8 km/h 18.5 mph /  29.8 km/h 41 % 0.0 in /  0 mm 0.0 W/m2 CLR
23:06 4.4 °F /  -15.3 °C -7.7 °F /  -22.1 °C 1010.0 in /  34198.6 hPa WSW 14.8 mph /  23.8 km/h 14.8 mph /  23.8 km/h 41 % 0.0 in /  0 mm 0.0 W/m2 CLR
23:11 3.9 °F /  -15.6 °C -8.2 °F /  -22.3 °C 1010.0 in /  34198.6 hPa WSW 16.1 mph /  25.9 km/h 16.1 mph /  25.9 km/h 41 % 0.0 in /  0 mm 0.0 W/m2 CLR
23:16 3.9 °F /  -15.6 °C -8.2 °F /  -22.3 °C 1010.4 in /  34212.1 hPa WSW 13.0 mph /  20.9 km/h 13.0 mph /  20.9 km/h 41 % 0.0 in /  0 mm 0.0 W/m2 CLR
23:21 3.9 °F /  -15.6 °C -7.9 °F /  -22.2 °C 1010.4 in /  34212.1 hPa WSW 5.6 mph /  9 km/h 5.6 mph /  9 km/h 42 % 0.0 in /  0 mm 0.0 W/m2 CLR
23:26 3.9 °F /  -15.6 °C -7.9 °F /  -22.2 °C 1010.4 in /  34212.1 hPa NW 8.0 mph /  12.9 km/h 8.0 mph /  12.9 km/h 42 % 0.0 in /  0 mm 0.0 W/m2 CLR
23:31 3.9 °F /  -15.6 °C -7.9 °F /  -22.2 °C 1010.4 in /  34212.1 hPa West 16.7 mph /  26.9 km/h 16.7 mph /  26.9 km/h 42 % 0.0 in /  0 mm 0.0 W/m2 CLR
23:36 3.3 °F /  -15.9 °C -8.1 °F /  -22.3 °C 1010.4 in /  34212.1 hPa WNW 11.1 mph /  17.9 km/h 11.1 mph /  17.9 km/h 43 % 0.0 in /  0 mm 0.0 W/m2 CLR
23:41 3.3 °F /  -15.9 °C -8.1 °F /  -22.3 °C 1010.7 in /  34222.3 hPa WNW 16.7 mph /  26.9 km/h 16.7 mph /  26.9 km/h 43 % 0.0 in /  0 mm 0.0 W/m2 CLR
23:46 2.8 °F /  -16.2 °C -8.6 °F /  -22.6 °C 1010.7 in /  34222.3 hPa WNW 16.7 mph /  26.9 km/h 16.7 mph /  26.9 km/h 43 % 0.0 in /  0 mm 0.0 W/m2 CLR
23:51 2.8 °F /  -16.2 °C -8.6 °F /  -22.6 °C 1010.4 in /  34212.1 hPa WNW 24.1 mph /  38.8 km/h 24.1 mph /  38.8 km/h 43 % 0.0 in /  0 mm 0.0 W/m2 CLR
23:56 2.8 °F /  -16.2 °C -8.3 °F /  -22.4 °C 1010.4 in /  34212.1 hPa West 17.7 mph /  28.5 km/h 17.7 mph /  28.5 km/h 44 % 0.0 in /  0 mm 0.0 W/m2 CLR
Lo Temps de Massalio
Compliments of Weather Underground - 1.25 mb